createdAt,value
2022-10-14T03:59:10.419Z,20.97
2022-10-14T04:00:10.383Z,20.93
2022-10-14T04:01:10.390Z,21.01
2022-10-14T04:02:10.444Z,20.97
2022-10-14T04:03:10.419Z,20.96
2022-10-14T04:04:10.421Z,20.97
2022-10-14T04:05:10.387Z,20.96
2022-10-14T04:06:10.399Z,21.01
2022-10-14T04:07:10.386Z,21.03
2022-10-14T04:08:10.422Z,20.98
2022-10-14T04:09:10.400Z,21.03
2022-10-14T04:10:09.717Z,21.01
2022-10-14T04:11:10.393Z,20.98
2022-10-14T04:12:10.391Z,21.01
2022-10-14T04:13:10.413Z,21.04
2022-10-14T04:14:10.393Z,20.96
2022-10-14T04:15:10.409Z,21.03
2022-10-14T04:16:10.399Z,21.09
2022-10-14T04:17:10.394Z,21.00
2022-10-14T04:18:10.461Z,21.09
2022-10-14T04:19:10.390Z,21.16
2022-10-14T04:20:10.429Z,21.09
2022-10-14T04:21:08.675Z,21.12
2022-10-14T04:22:08.675Z,21.15
2022-10-14T04:23:09.684Z,21.15
2022-10-14T04:24:08.777Z,21.19
2022-10-14T04:25:10.436Z,21.19
2022-10-14T04:26:09.679Z,21.21
2022-10-14T04:27:08.691Z,21.18
2022-10-14T04:28:09.655Z,21.16
2022-10-14T04:29:08.664Z,21.27
2022-10-14T04:30:10.429Z,21.19
2022-10-14T04:31:09.672Z,21.34
2022-10-14T04:32:10.406Z,21.22
2022-10-14T04:33:09.636Z,21.28
2022-10-14T04:34:08.643Z,21.28
2022-10-14T04:35:10.440Z,21.30
2022-10-14T04:36:08.627Z,21.34
2022-10-14T04:37:08.628Z,21.30
2022-10-14T04:38:09.625Z,21.34
2022-10-14T04:39:10.417Z,21.30
2022-10-14T04:40:09.925Z,21.34
2022-10-14T04:41:10.431Z,21.33
2022-10-14T04:42:10.419Z,21.37
2022-10-14T04:43:10.432Z,21.41
2022-10-14T04:44:10.432Z,21.41
2022-10-14T04:45:11.435Z,21.41
2022-10-14T04:46:09.601Z,21.33
2022-10-14T04:47:10.478Z,21.40
2022-10-14T04:48:09.945Z,21.41
2022-10-14T04:49:08.580Z,21.41
2022-10-14T04:50:10.446Z,21.46
2022-10-14T04:51:08.578Z,21.37
2022-10-14T04:52:08.585Z,21.40
2022-10-14T04:53:13.474Z,21.40
2022-10-14T04:54:09.571Z,21.51
2022-10-14T04:55:10.469Z,21.46
2022-10-14T04:56:08.556Z,21.46
2022-10-14T04:57:10.435Z,21.53
2022-10-14T04:58:10.469Z,21.48
2022-10-14T04:59:10.427Z,21.46
2022-10-14T05:00:10.424Z,21.55
2022-10-14T05:01:10.437Z,21.49
2022-10-14T05:02:10.517Z,21.46
2022-10-14T05:03:10.477Z,21.51
2022-10-14T05:04:10.440Z,21.53
2022-10-14T05:05:10.432Z,21.58
2022-10-14T05:06:10.486Z,21.58
2022-10-14T05:07:10.444Z,21.58
2022-10-14T05:08:10.464Z,21.53
2022-10-14T05:09:10.435Z,21.53
2022-10-14T05:10:10.449Z,21.53
2022-10-14T05:11:10.488Z,21.53
2022-10-14T05:12:10.451Z,21.48
2022-10-14T05:13:10.463Z,21.55
2022-10-14T05:14:08.509Z,21.53
2022-10-14T05:15:08.502Z,21.56
2022-10-14T05:16:10.504Z,21.51
2022-10-14T05:17:08.488Z,21.49
2022-10-14T05:18:09.452Z,21.51
2022-10-14T05:19:09.966Z,21.58
2022-10-14T05:20:08.490Z,21.59
2022-10-14T05:21:10.479Z,21.64
2022-10-14T05:22:10.474Z,21.61
2022-10-14T05:23:08.496Z,21.53
2022-10-14T05:24:08.481Z,21.62
2022-10-14T05:25:10.015Z,21.55
2022-10-14T05:26:09.979Z,21.64
2022-10-14T05:27:09.975Z,21.64
2022-10-14T05:28:09.995Z,21.64
2022-10-14T05:29:09.981Z,21.66
2022-10-14T05:30:09.976Z,21.61
2022-10-14T05:31:09.474Z,21.66
2022-10-14T05:32:09.963Z,21.61
2022-10-14T05:33:09.469Z,21.62
2022-10-14T05:34:10.004Z,21.67
2022-10-14T05:35:10.023Z,21.59
2022-10-14T05:36:09.500Z,21.66
2022-10-14T05:37:10.035Z,21.58
2022-10-14T05:38:09.962Z,21.68
2022-10-14T05:39:10.020Z,21.59
2022-10-14T05:40:09.981Z,21.64
2022-10-14T05:41:10.005Z,21.68
2022-10-14T05:42:09.966Z,21.64
2022-10-14T05:43:08.477Z,21.62
2022-10-14T05:44:08.417Z,21.61
2022-10-14T05:45:09.982Z,21.61
2022-10-14T05:46:08.417Z,21.64
2022-10-14T05:47:08.405Z,21.67
2022-10-14T05:48:08.429Z,21.62
2022-10-14T05:49:12.519Z,21.67
2022-10-14T05:50:08.396Z,21.66
2022-10-14T05:51:08.479Z,21.64
2022-10-14T05:52:08.386Z,21.70
2022-10-14T05:53:08.429Z,21.62
2022-10-14T05:54:09.997Z,21.68
2022-10-14T05:55:08.409Z,21.61
2022-10-14T05:56:08.591Z,21.66
2022-10-14T05:57:08.672Z,21.66
2022-10-14T05:58:08.366Z,21.70
2022-10-14T05:59:09.981Z,21.64
2022-10-14T06:00:10.036Z,21.71
2022-10-14T06:01:08.528Z,21.62
2022-10-14T06:02:10.042Z,21.67
2022-10-14T06:03:08.469Z,21.73
2022-10-14T06:04:10.098Z,21.71
2022-10-14T06:05:09.537Z,21.71
2022-10-14T06:06:11.103Z,21.71
2022-10-14T06:07:08.335Z,21.67
2022-10-14T06:08:09.989Z,21.71
2022-10-14T06:09:11.472Z,21.77
2022-10-14T06:10:09.999Z,21.73
2022-10-14T06:11:10.038Z,21.76
2022-10-14T06:12:10.008Z,21.76
2022-10-14T06:13:10.051Z,21.74
2022-10-14T06:14:09.988Z,21.73
2022-10-14T06:15:10.016Z,21.76
2022-10-14T06:16:09.994Z,21.78
2022-10-14T06:17:08.312Z,21.76
2022-10-14T06:18:08.320Z,21.80
2022-10-14T06:19:10.005Z,21.77
2022-10-14T06:20:08.336Z,21.86
2022-10-14T06:21:09.383Z,21.82
2022-10-14T06:22:10.031Z,21.76
2022-10-14T06:23:08.337Z,21.85
2022-10-14T06:24:08.369Z,21.83
2022-10-14T06:25:08.287Z,21.80
2022-10-14T06:26:08.268Z,21.80
2022-10-14T06:27:10.050Z,21.82
2022-10-14T06:28:08.271Z,21.89
2022-10-14T06:29:10.028Z,21.80
2022-10-14T06:30:10.005Z,21.90
2022-10-14T06:31:10.008Z,21.78
2022-10-14T06:32:10.031Z,21.89
2022-10-14T06:33:10.061Z,21.93
2022-10-14T06:34:10.102Z,21.89
2022-10-14T06:35:10.130Z,21.86
2022-10-14T06:36:10.020Z,21.92
2022-10-14T06:37:10.025Z,21.94
2022-10-14T06:38:10.074Z,21.92
2022-10-14T06:39:10.026Z,21.92
2022-10-14T06:40:08.289Z,21.93
2022-10-14T06:41:10.031Z,21.94
2022-10-14T06:42:13.070Z,22.04
2022-10-14T06:43:10.013Z,21.94
2022-10-14T06:44:10.034Z,21.96
2022-10-14T06:45:10.020Z,22.00
2022-10-14T06:46:10.014Z,21.96
2022-10-14T06:47:10.041Z,22.05
2022-10-14T06:48:09.762Z,22.02
2022-10-14T06:49:10.033Z,22.09
2022-10-14T06:50:08.205Z,21.99
2022-10-14T06:54:19.892Z,22.11
2022-10-14T06:55:18.106Z,22.11
2022-10-14T06:56:18.107Z,22.05
2022-10-14T06:57:19.865Z,22.11
2022-10-14T06:58:18.113Z,22.09
2022-10-14T06:59:19.842Z,22.11
2022-10-14T07:00:18.107Z,22.11
2022-10-14T07:01:19.919Z,22.12
2022-10-14T07:02:20.175Z,22.14
2022-10-14T07:03:19.845Z,22.22
2022-10-14T07:04:18.098Z,22.18
2022-10-14T07:05:19.835Z,22.11
2022-10-14T07:06:18.078Z,22.14
2022-10-14T07:07:19.843Z,22.11
2022-10-14T07:08:18.070Z,22.18
2022-10-14T07:09:19.829Z,22.20
2022-10-14T07:10:18.113Z,22.26
2022-10-14T07:11:18.069Z,22.15
2022-10-14T07:12:20.052Z,22.20
2022-10-14T07:13:18.059Z,22.11
2022-10-14T07:14:19.876Z,22.20
2022-10-14T07:15:18.079Z,22.24
2022-10-14T07:16:18.068Z,22.24
2022-10-14T07:17:18.057Z,22.26
2022-10-14T07:18:19.918Z,22.16
2022-10-14T07:19:18.043Z,22.29
2022-10-14T07:20:18.058Z,22.26
2022-10-14T07:21:18.032Z,22.23
2022-10-14T07:22:18.056Z,22.34
2022-10-14T07:23:19.863Z,22.36
2022-10-14T07:24:18.036Z,22.39
2022-10-14T07:25:18.027Z,22.36
2022-10-14T07:26:19.898Z,22.42
2022-10-14T07:27:20.290Z,22.39
2022-10-14T07:28:19.900Z,22.42
2022-10-14T07:29:19.890Z,22.39
2022-10-14T07:30:19.865Z,22.44
2022-10-14T07:31:19.850Z,22.45
2022-10-14T07:32:19.863Z,22.45
2022-10-14T07:33:19.870Z,22.45
2022-10-14T07:34:19.881Z,22.49
2022-10-14T07:35:19.905Z,22.63
2022-10-14T07:36:22.385Z,22.64
2022-10-14T07:37:20.194Z,22.66
2022-10-14T07:38:19.966Z,22.61
2022-10-14T07:39:19.873Z,22.66
2022-10-14T07:40:18.989Z,22.70
2022-10-14T07:41:19.880Z,22.76
2022-10-14T07:43:19.915Z,22.81
2022-10-14T07:44:23.556Z,22.85
2022-10-14T07:45:19.876Z,22.78
2022-10-14T07:46:19.872Z,22.89
2022-10-14T07:47:20.331Z,22.89
2022-10-14T07:48:27.342Z,22.92
2022-10-14T07:49:19.882Z,22.96
2022-10-14T07:50:19.929Z,22.92
2022-10-14T07:51:19.884Z,22.97
2022-10-14T07:52:17.963Z,22.97
2022-10-14T07:53:17.981Z,23.03
2022-10-14T07:54:18.026Z,23.00
2022-10-14T07:55:17.954Z,23.04
2022-10-14T07:56:19.903Z,23.06
2022-10-14T07:57:17.953Z,23.04
2022-10-14T07:58:19.918Z,23.01
2022-10-14T07:59:19.912Z,23.04
2022-10-14T08:00:19.878Z,23.06
2022-10-14T08:01:19.948Z,23.09
2022-10-14T08:02:19.905Z,23.03
2022-10-14T08:03:19.884Z,23.06
2022-10-14T08:04:19.905Z,23.16
2022-10-14T08:05:37.251Z,23.15
2022-10-14T08:06:19.916Z,23.07
2022-10-14T08:07:17.934Z,23.15
2022-10-14T08:08:19.898Z,23.24
2022-10-14T08:09:20.003Z,23.18
2022-10-14T08:10:17.935Z,23.22
2022-10-14T08:11:19.887Z,23.15
2022-10-14T08:12:20.066Z,23.28
2022-10-14T08:13:19.923Z,23.22
2022-10-14T08:14:17.937Z,23.32
2022-10-14T08:15:19.894Z,23.32
2022-10-14T08:16:19.897Z,23.40
2022-10-14T08:17:19.901Z,23.32
2022-10-14T08:18:19.433Z,23.44
2022-10-14T08:19:18.960Z,23.45
2022-10-14T08:21:19.419Z,23.48
2022-10-14T08:22:17.916Z,23.55
2022-10-14T08:23:19.843Z,23.52
2022-10-14T08:24:19.416Z,23.55
2022-10-14T08:25:17.909Z,23.57
2022-10-14T08:26:19.459Z,23.64
2022-10-14T08:27:17.919Z,23.60
2022-10-14T08:28:18.010Z,23.59
2022-10-14T08:29:19.424Z,23.53
2022-10-14T08:30:17.941Z,23.53
2022-10-14T08:32:17.893Z,23.56
2022-10-14T08:33:20.407Z,23.53
2022-10-14T08:34:17.900Z,23.53
2022-10-14T08:35:17.884Z,23.53
2022-10-14T08:36:19.427Z,23.57
2022-10-14T08:37:17.899Z,23.48
2022-10-14T08:38:17.880Z,23.60
2022-10-14T08:39:19.427Z,23.56
2022-10-14T08:40:19.445Z,23.55
2022-10-14T08:41:19.416Z,23.53
2022-10-14T08:42:19.812Z,23.50
2022-10-14T08:43:19.414Z,23.53
2022-10-14T08:44:17.868Z,23.59
2022-10-14T08:45:17.865Z,23.53
2022-10-14T08:46:17.878Z,23.56
2022-10-14T08:47:19.459Z,23.63
2022-10-14T08:48:19.447Z,23.66
2022-10-14T08:49:19.500Z,23.63
2022-10-14T08:50:17.877Z,23.67
2022-10-14T08:51:17.870Z,23.64
2022-10-14T08:52:19.784Z,23.67
2022-10-14T08:53:19.444Z,23.67
2022-10-14T08:54:17.857Z,23.71
2022-10-14T08:55:17.857Z,23.66
2022-10-14T08:56:17.872Z,23.75
2022-10-14T08:57:17.867Z,23.72
2022-10-14T08:58:19.629Z,23.77
2022-10-14T08:59:17.842Z,23.77
2022-10-14T09:00:17.852Z,23.70
2022-10-14T09:01:17.848Z,23.74
2022-10-14T09:02:19.749Z,23.75
2022-10-14T09:03:19.431Z,23.85
2022-10-14T09:04:19.452Z,23.84
2022-10-14T09:05:19.448Z,23.85
2022-10-14T09:06:19.434Z,23.79
2022-10-14T09:07:19.472Z,23.96
2022-10-14T09:08:19.480Z,23.93
2022-10-14T09:09:19.452Z,23.93
2022-10-14T09:10:19.442Z,23.84
2022-10-14T09:11:19.440Z,23.89
2022-10-14T09:12:19.806Z,23.89
2022-10-14T09:13:18.506Z,23.92
2022-10-14T09:14:19.454Z,23.89
2022-10-14T09:15:19.455Z,23.94
2022-10-14T09:16:19.447Z,23.97
2022-10-14T09:17:19.444Z,23.92
2022-10-14T09:18:19.478Z,23.93
2022-10-14T09:19:19.473Z,24.03
2022-10-14T09:20:17.818Z,24.03
2022-10-14T09:21:27.874Z,23.96
2022-10-14T09:22:17.820Z,24.02
2022-10-14T09:23:19.486Z,24.11
2022-10-14T09:24:18.498Z,24.07
2022-10-14T09:25:19.474Z,24.08
2022-10-14T09:26:17.819Z,24.09
2022-10-14T09:27:19.829Z,24.09
2022-10-14T09:28:19.545Z,24.12
2022-10-14T09:29:19.543Z,24.21
2022-10-14T09:30:17.875Z,24.21
2022-10-14T09:31:17.817Z,24.21
2022-10-14T09:32:19.625Z,24.21
2022-10-14T09:33:17.825Z,24.18
2022-10-14T09:34:17.822Z,24.15
2022-10-14T09:35:19.498Z,24.22
2022-10-14T09:36:17.823Z,24.14
2022-10-14T09:37:19.797Z,24.18
2022-10-14T09:38:19.480Z,24.15
2022-10-14T09:39:18.502Z,24.26
2022-10-14T09:40:19.484Z,24.18
2022-10-14T09:41:19.537Z,24.22
2022-10-14T09:42:19.483Z,24.22
2022-10-14T09:43:19.521Z,24.17
2022-10-14T09:44:19.486Z,24.14
2022-10-14T09:45:19.509Z,24.24
2022-10-14T09:46:19.469Z,24.14
2022-10-14T09:47:19.542Z,24.08
2022-10-14T09:48:19.477Z,24.22
2022-10-14T09:49:19.498Z,24.14
2022-10-14T09:50:19.492Z,24.18
2022-10-14T09:51:19.544Z,24.19
2022-10-14T09:52:17.777Z,24.17
2022-10-14T09:53:17.822Z,24.21
2022-10-14T09:54:19.494Z,24.19
2022-10-14T09:55:19.492Z,24.22
2022-10-14T09:56:18.988Z,24.18
2022-10-14T09:57:17.784Z,24.15
2022-10-14T09:58:17.767Z,24.22
2022-10-14T09:59:19.510Z,24.15
2022-10-14T10:00:17.832Z,24.15
2022-10-14T10:01:17.832Z,24.19
2022-10-14T10:02:17.775Z,24.17
2022-10-14T10:13:21.660Z,23.92
2022-10-14T10:14:21.657Z,24.00
2022-10-14T10:15:20.040Z,23.93
2022-10-14T10:16:21.160Z,23.94
2022-10-14T10:17:20.315Z,23.96
2022-10-14T10:18:21.655Z,23.84
2022-10-14T10:19:20.012Z,23.74
2022-10-14T10:20:21.665Z,23.81
2022-10-14T10:21:20.039Z,23.78
2022-10-14T10:22:21.649Z,23.79
2022-10-14T10:23:21.681Z,23.77
2022-10-14T10:24:20.041Z,23.74
2022-10-14T10:25:20.991Z,23.79
2022-10-14T10:26:21.669Z,23.77
2022-10-14T10:27:21.902Z,23.72
2022-10-14T10:28:20.053Z,23.75
2022-10-14T10:29:20.067Z,23.72
2022-10-14T10:30:21.681Z,23.71
2022-10-14T10:31:21.835Z,23.75
2022-10-14T10:32:21.939Z,23.77
2022-10-14T10:33:19.980Z,23.75
2022-10-14T10:34:21.668Z,23.82
2022-10-14T10:35:21.671Z,23.84
2022-10-14T10:36:21.724Z,23.81
2022-10-14T10:37:21.960Z,23.79
2022-10-14T10:38:21.645Z,23.96
2022-10-14T10:39:21.645Z,23.90
2022-10-14T10:40:21.671Z,23.96
2022-10-14T10:41:19.982Z,23.93
2022-10-14T10:42:20.237Z,23.92
2022-10-14T10:43:19.989Z,23.96
2022-10-14T10:44:19.987Z,24.00
2022-10-14T10:45:21.687Z,24.00
2022-10-14T10:46:21.697Z,24.00
2022-10-14T10:47:21.698Z,24.08
2022-10-14T10:48:21.663Z,24.12
2022-10-14T10:49:21.846Z,24.07
2022-10-14T10:50:21.661Z,24.14
2022-10-14T10:51:21.679Z,24.12
2022-10-14T10:52:21.887Z,24.14
2022-10-14T10:53:21.676Z,24.22
2022-10-14T10:54:21.682Z,24.22
2022-10-14T10:55:21.756Z,24.24
2022-10-14T10:56:21.670Z,24.24
2022-10-14T10:57:21.911Z,24.29
2022-10-14T10:58:21.671Z,24.30
2022-10-14T10:59:21.844Z,24.32
2022-10-14T11:00:21.792Z,24.30
2022-10-14T11:01:21.872Z,24.44
2022-10-14T11:02:22.011Z,24.48
2022-10-14T11:03:21.688Z,24.55
2022-10-14T11:04:23.718Z,24.61
2022-10-14T11:05:21.693Z,24.59
2022-10-14T11:06:21.787Z,24.71
2022-10-14T11:07:26.943Z,24.82
2022-10-14T11:08:21.757Z,24.80
2022-10-14T11:09:21.708Z,24.92
2022-10-14T11:10:21.747Z,24.96
2022-10-14T11:11:21.701Z,25.00
2022-10-14T11:12:20.222Z,25.02
2022-10-14T11:13:19.967Z,25.17
2022-10-14T11:14:19.936Z,25.20
2022-10-14T11:15:19.955Z,25.24
2022-10-14T11:16:21.716Z,25.29
2022-10-14T11:17:22.158Z,25.39
2022-10-14T11:18:21.699Z,25.33
2022-10-14T11:19:21.700Z,25.51
2022-10-14T11:20:21.761Z,25.54
2022-10-14T11:21:21.781Z,25.59
2022-10-14T11:22:22.008Z,25.54
2022-10-14T11:23:21.723Z,25.54
2022-10-14T11:24:21.711Z,25.60
2022-10-14T11:25:21.711Z,25.66
2022-10-14T11:26:21.734Z,25.71
2022-10-14T11:27:24.067Z,25.74
2022-10-14T11:28:20.086Z,25.82
2022-10-14T11:29:21.720Z,25.76
2022-10-14T11:30:21.714Z,25.81
2022-10-14T11:31:21.703Z,25.81
2022-10-14T11:32:21.697Z,25.93
2022-10-14T11:33:21.744Z,25.93
2022-10-14T11:34:21.772Z,25.85
2022-10-14T11:35:21.764Z,25.88
2022-10-14T11:36:21.701Z,25.89
2022-10-14T11:37:22.143Z,25.89
2022-10-14T11:38:19.941Z,25.89
2022-10-14T11:39:21.721Z,25.88
2022-10-14T11:40:19.935Z,25.85
2022-10-14T11:41:19.941Z,25.88
2022-10-14T11:42:20.247Z,25.88
2022-10-14T11:43:19.966Z,25.79
2022-10-14T11:44:21.779Z,25.76
2022-10-14T11:45:21.372Z,25.75
2022-10-14T11:46:20.044Z,25.78
2022-10-14T11:47:22.154Z,25.67
2022-10-14T11:48:19.943Z,25.59
2022-10-14T11:49:19.960Z,25.59
2022-10-14T11:50:21.730Z,25.49
2022-10-14T11:51:19.955Z,25.48
2022-10-14T11:52:21.711Z,25.42
2022-10-14T11:53:21.735Z,25.38
2022-10-14T11:54:19.939Z,25.32
2022-10-14T11:55:21.720Z,25.39
2022-10-14T11:56:19.965Z,25.38
2022-10-14T11:57:22.050Z,25.29
2022-10-14T11:58:21.779Z,25.24
2022-10-14T11:59:19.951Z,25.30
2022-10-14T12:00:21.833Z,25.23
2022-10-14T12:01:19.954Z,25.17
2022-10-14T12:02:20.525Z,25.17
2022-10-14T12:03:21.762Z,25.19
2022-10-14T12:04:21.725Z,25.11
2022-10-14T12:05:19.955Z,25.04
2022-10-14T12:06:19.940Z,25.09
2022-10-14T12:07:19.981Z,24.97
2022-10-14T12:08:21.246Z,25.05
2022-10-14T12:09:19.931Z,25.02
2022-10-14T12:10:19.995Z,25.00
2022-10-14T12:11:21.752Z,25.00
2022-10-14T12:12:20.245Z,24.96
2022-10-14T12:13:21.747Z,24.93
2022-10-14T12:14:20.947Z,24.85
2022-10-14T12:15:20.111Z,24.74
2022-10-14T12:16:21.775Z,24.83
2022-10-14T12:17:20.162Z,24.75
2022-10-14T12:18:19.933Z,24.75
2022-10-14T12:19:21.751Z,24.70
2022-10-14T12:20:21.748Z,24.64
2022-10-14T12:21:21.765Z,24.75
2022-10-14T12:22:22.141Z,24.74
2022-10-14T12:23:21.799Z,24.59
2022-10-14T12:24:21.787Z,24.63
2022-10-14T12:25:21.750Z,24.54
2022-10-14T12:26:21.747Z,24.55
2022-10-14T12:27:21.824Z,24.45
2022-10-14T12:28:21.840Z,24.54
2022-10-14T12:29:21.773Z,24.42
2022-10-14T12:30:21.766Z,24.52
2022-10-14T12:31:21.767Z,24.48
2022-10-14T12:32:22.213Z,24.49
2022-10-14T12:33:23.188Z,24.46
2022-10-14T12:34:21.761Z,24.48
2022-10-14T12:35:21.752Z,24.32
2022-10-14T12:36:21.781Z,24.39
2022-10-14T12:37:25.715Z,24.36
2022-10-14T12:38:21.772Z,24.40
2022-10-14T12:39:21.768Z,24.33
2022-10-14T12:40:21.759Z,24.36
2022-10-14T12:41:21.839Z,24.29
2022-10-14T12:42:22.050Z,24.39
2022-10-14T12:43:19.908Z,24.33
2022-10-14T12:44:19.907Z,24.32
2022-10-14T12:45:19.899Z,24.29
2022-10-14T12:46:19.904Z,24.26
2022-10-14T12:47:22.085Z,24.34
2022-10-14T12:48:19.907Z,24.29
2022-10-14T12:49:19.890Z,24.30
2022-10-14T12:50:21.789Z,24.27
2022-10-14T12:51:19.899Z,24.30
2022-10-14T12:52:21.786Z,24.24
2022-10-14T12:53:19.895Z,24.33
2022-10-14T12:54:21.784Z,24.26
2022-10-14T12:55:21.794Z,24.26
2022-10-14T12:56:21.774Z,24.24
2022-10-14T12:57:21.913Z,24.17
2022-10-14T12:58:21.783Z,24.24
2022-10-14T12:59:19.894Z,24.18
2022-10-14T13:00:21.812Z,24.15
2022-10-14T13:01:21.905Z,24.18
2022-10-14T13:02:21.998Z,24.12
2022-10-14T13:03:21.817Z,24.12
2022-10-14T13:04:21.799Z,24.09
2022-10-14T13:05:19.878Z,24.04
2022-10-14T13:06:19.944Z,24.07
2022-10-14T13:07:39.740Z,24.08
2022-10-14T13:08:21.843Z,23.96
2022-10-14T13:09:21.821Z,23.97
2022-10-14T13:10:19.882Z,24.02
2022-10-14T13:11:19.880Z,23.97
2022-10-14T13:12:19.868Z,24.00
2022-10-14T13:13:20.243Z,23.93
2022-10-14T13:14:21.828Z,23.96
2022-10-14T13:15:19.891Z,23.90
2022-10-14T13:16:21.815Z,23.89
2022-10-14T13:17:19.858Z,23.93
2022-10-14T13:18:19.860Z,23.77
2022-10-14T13:19:21.827Z,23.77
2022-10-14T13:20:19.862Z,23.84
2022-10-14T13:21:21.807Z,23.89
2022-10-14T13:22:19.871Z,23.81
2022-10-14T13:23:21.854Z,23.75
2022-10-14T13:24:19.873Z,23.81
2022-10-14T13:25:19.839Z,23.77
2022-10-14T13:26:19.859Z,23.78
2022-10-14T13:27:22.043Z,23.77
2022-10-14T13:28:19.889Z,23.72
2022-10-14T13:29:21.811Z,23.75
2022-10-14T13:30:19.849Z,23.66
2022-10-14T13:31:21.815Z,23.72
2022-10-14T13:32:23.774Z,23.72
2022-10-14T13:33:19.833Z,23.71
2022-10-14T13:34:21.831Z,23.67
2022-10-14T13:35:19.835Z,23.77
2022-10-14T13:36:20.834Z,23.67
2022-10-14T13:37:21.337Z,23.64
2022-10-14T13:38:21.345Z,23.63
2022-10-14T13:39:21.336Z,23.66
2022-10-14T13:40:21.329Z,23.70
2022-10-14T13:41:21.316Z,23.63
2022-10-14T13:42:21.665Z,23.67
2022-10-14T13:43:21.318Z,23.62
2022-10-14T13:44:21.321Z,23.62
2022-10-14T13:45:21.337Z,23.57
2022-10-14T13:46:19.806Z,23.57
2022-10-14T13:47:21.647Z,23.57
2022-10-14T13:48:21.340Z,23.60
2022-10-14T13:49:19.796Z,23.66
2022-10-14T13:50:21.351Z,23.50
2022-10-14T13:51:37.008Z,23.63
2022-10-14T13:52:21.690Z,23.52
2022-10-14T13:53:21.356Z,23.50
2022-10-14T13:54:21.345Z,23.56
2022-10-14T13:55:21.343Z,23.50
2022-10-14T13:56:21.349Z,23.47
2022-10-14T13:58:21.397Z,23.45
2022-10-14T13:59:39.949Z,23.44
2022-10-14T14:01:21.394Z,23.37
2022-10-14T14:02:21.691Z,23.37
2022-10-14T14:03:21.368Z,23.37
2022-10-14T14:04:21.346Z,23.41
2022-10-14T14:05:21.404Z,23.42
2022-10-14T14:06:21.367Z,23.44
2022-10-14T14:08:38.769Z,23.41
2022-10-14T14:09:21.480Z,23.25
2022-10-14T14:10:21.379Z,23.34
2022-10-14T14:11:21.354Z,23.25
2022-10-14T14:12:21.354Z,23.22
2022-10-14T14:13:21.360Z,23.25
2022-10-14T14:14:21.363Z,23.26
2022-10-14T14:15:21.375Z,23.26
2022-10-14T14:16:21.495Z,23.25
2022-10-14T14:17:21.355Z,23.24
2022-10-14T14:18:21.352Z,23.25
2022-10-14T14:19:21.354Z,23.25
2022-10-14T14:20:21.381Z,23.22
2022-10-14T14:21:21.384Z,23.18
2022-10-14T14:22:19.737Z,23.16
2022-10-14T14:23:19.741Z,23.07
2022-10-14T14:24:21.381Z,23.09
2022-10-14T14:25:37.000Z,23.07
2022-10-14T14:26:21.550Z,23.07
2022-10-14T14:27:21.657Z,23.04
2022-10-14T14:28:21.461Z,23.03
2022-10-14T14:29:21.398Z,23.09
2022-10-14T14:30:21.366Z,23.15
2022-10-14T14:31:21.421Z,23.12
2022-10-14T14:32:21.391Z,23.12
2022-10-14T14:33:21.413Z,23.09
2022-10-14T14:34:21.367Z,23.03
2022-10-14T14:35:22.139Z,23.10
2022-10-14T14:36:27.716Z,23.04
2022-10-14T14:38:21.409Z,23.01
2022-10-14T14:39:21.370Z,23.06
2022-10-14T14:40:21.390Z,23.00
2022-10-14T14:41:21.428Z,23.04
2022-10-14T14:42:19.698Z,23.04
2022-10-14T14:43:21.388Z,23.03
2022-10-14T14:44:25.864Z,23.04
2022-10-14T14:45:21.372Z,23.00
2022-10-14T14:46:19.687Z,23.03
2022-10-14T14:47:20.759Z,23.01
2022-10-14T14:48:21.387Z,23.01
2022-10-14T14:49:21.385Z,22.99
2022-10-14T14:50:32.575Z,22.91
2022-10-14T14:51:21.404Z,22.96
2022-10-14T14:52:20.449Z,22.91
2022-10-14T14:53:19.680Z,22.91
2022-10-14T14:54:19.668Z,22.91
2022-10-14T14:55:19.675Z,22.94
2022-10-14T14:56:19.667Z,22.97
2022-10-14T14:57:21.695Z,22.89
2022-10-14T14:58:19.666Z,22.97
2022-10-14T14:59:21.383Z,22.97
2022-10-14T15:00:19.674Z,22.92
2022-10-14T15:01:21.394Z,22.92
2022-10-14T15:02:21.878Z,22.86
2022-10-14T15:03:20.666Z,22.91
2022-10-14T15:04:21.416Z,22.96
2022-10-14T15:05:20.640Z,22.86
2022-10-14T15:06:21.397Z,22.88
2022-10-14T15:07:21.793Z,22.89
2022-10-14T15:08:21.451Z,22.88
2022-10-14T15:09:19.630Z,22.89
2022-10-14T15:10:21.450Z,22.88
2022-10-14T15:11:21.397Z,22.89
2022-10-14T15:12:21.690Z,22.86
2022-10-14T15:13:19.648Z,22.89
2022-10-14T15:14:22.134Z,22.96
2022-10-14T15:15:21.448Z,22.82
2022-10-14T15:16:21.419Z,22.88
2022-10-14T15:17:21.409Z,22.84
2022-10-14T15:18:21.415Z,22.85
2022-10-14T15:19:21.409Z,22.85
2022-10-14T15:20:21.446Z,22.76
2022-10-14T15:21:21.406Z,22.85
2022-10-14T15:22:23.987Z,22.82
2022-10-14T15:23:21.416Z,22.81
2022-10-14T15:24:21.431Z,22.78
2022-10-14T15:25:21.412Z,22.81
2022-10-14T15:26:21.443Z,22.78
2022-10-14T15:27:21.420Z,22.79
2022-10-14T15:28:20.609Z,22.81
2022-10-14T15:30:21.459Z,22.86
2022-10-14T15:31:21.458Z,22.86
2022-10-14T15:32:21.770Z,22.84
2022-10-14T15:33:19.585Z,22.85
2022-10-14T15:34:21.453Z,22.82
2022-10-14T15:35:21.431Z,22.66
2022-10-14T15:36:21.433Z,22.73
2022-10-14T15:37:21.431Z,22.71
2022-10-14T15:38:21.488Z,22.73
2022-10-14T15:39:20.565Z,22.71
2022-10-14T15:40:21.434Z,22.75
2022-10-14T15:41:21.453Z,22.79
2022-10-14T15:42:21.900Z,22.69
2022-10-14T15:43:21.425Z,22.71
2022-10-14T15:44:21.434Z,22.73
2022-10-14T15:45:21.437Z,22.64
2022-10-14T15:46:21.459Z,22.63
2022-10-14T15:47:21.469Z,22.61
2022-10-14T15:48:21.461Z,22.59
2022-10-14T15:49:21.428Z,22.59
2022-10-14T15:50:21.485Z,22.63
2022-10-14T15:51:21.447Z,22.63
2022-10-14T15:52:24.440Z,22.66
2022-10-14T15:53:21.458Z,22.64
2022-10-14T15:54:21.450Z,22.60
2022-10-14T15:55:21.471Z,22.55
2022-10-14T15:56:21.497Z,22.55
2022-10-14T15:57:21.729Z,22.48
2022-10-14T15:58:20.513Z,22.44
2022-10-14T15:59:21.452Z,22.44
2022-10-14T16:00:21.444Z,22.59
2022-10-14T16:01:21.601Z,22.48
2022-10-14T16:12:34.159Z,22.34
2022-10-14T16:13:35.690Z,22.34
2022-10-14T16:14:35.702Z,22.24
2022-10-14T16:15:35.678Z,22.26
2022-10-14T16:16:34.107Z,22.26
2022-10-14T16:17:35.690Z,22.24
2022-10-14T16:18:34.083Z,22.23
2022-10-14T16:19:35.218Z,22.26
2022-10-14T16:20:34.082Z,22.26
2022-10-14T16:21:34.714Z,22.26
2022-10-14T16:22:35.726Z,22.22
2022-10-14T16:23:35.710Z,22.23
2022-10-14T16:24:35.209Z,22.09
2022-10-14T16:25:34.056Z,22.15
2022-10-14T16:26:34.064Z,22.24
2022-10-14T16:27:35.711Z,22.14
2022-10-14T16:28:35.253Z,22.20
2022-10-14T16:29:35.693Z,22.12
2022-10-14T16:30:35.719Z,22.29
2022-10-14T16:31:35.034Z,22.09
2022-10-14T16:32:34.028Z,22.12
2022-10-14T16:33:35.730Z,22.07
2022-10-14T16:34:35.040Z,22.15
2022-10-14T16:35:35.731Z,22.12
2022-10-14T16:36:35.082Z,22.14
2022-10-14T16:37:35.729Z,22.18
2022-10-14T16:38:35.726Z,22.08
2022-10-14T16:39:35.727Z,22.11
2022-10-14T16:40:36.858Z,22.09
2022-10-14T16:41:35.710Z,22.14
2022-10-14T16:42:35.729Z,22.18
2022-10-14T16:43:35.722Z,22.09
2022-10-14T16:44:35.752Z,22.08
2022-10-14T16:45:33.990Z,22.08
2022-10-14T16:46:35.715Z,22.11
2022-10-14T16:47:35.747Z,22.11
2022-10-14T16:48:35.768Z,22.07
2022-10-14T16:49:35.735Z,22.07
2022-10-14T16:50:35.720Z,22.12
2022-10-14T16:51:34.038Z,22.15
2022-10-14T16:52:33.994Z,22.12
2022-10-14T16:53:35.734Z,22.09
2022-10-14T16:54:34.972Z,22.09
2022-10-14T16:55:35.751Z,22.11
2022-10-14T16:56:35.740Z,22.14
2022-10-14T16:57:35.745Z,22.08
2022-10-14T16:58:35.851Z,22.05
2022-10-14T16:59:35.730Z,22.08
2022-10-14T17:00:35.812Z,22.14
2022-10-14T17:01:35.806Z,22.11
2022-10-14T17:02:35.723Z,22.09
2022-10-14T17:03:35.728Z,22.08
2022-10-14T17:04:35.757Z,22.08
2022-10-14T17:05:35.776Z,22.02
2022-10-14T17:06:35.731Z,22.11
2022-10-14T17:07:35.755Z,22.12
2022-10-14T17:08:35.737Z,22.14
2022-10-14T17:09:35.751Z,22.11
2022-10-14T17:10:33.915Z,22.11
2022-10-14T17:11:33.942Z,22.08
2022-10-14T17:12:35.782Z,22.14
2022-10-14T17:13:33.932Z,22.15
2022-10-14T17:14:33.910Z,22.09
2022-10-14T17:15:35.762Z,22.08
2022-10-14T17:16:33.922Z,22.05
2022-10-14T17:17:33.900Z,22.11
2022-10-14T17:18:35.013Z,22.04
2022-10-14T17:19:33.903Z,22.04
2022-10-14T17:20:35.762Z,22.09
2022-10-14T17:21:33.887Z,22.05
2022-10-14T17:22:33.892Z,22.05